Burlingham, New York
Current Conditions -  °F | °C
As of 2:54 PM on Tuesday 21 Oct 2014 (Local Time) from KMGJ Reporting Station
Overcast Overcast  
Wind Chill: 54°   Ceiling: 5000
Heat Index: 54°   Visibility: 10mi
Dew Point: 49°   Wind: 10mph
Humidity: 83%   Direction: 40°NE
Pressure: 29.87"   Gusts: NA
Location:  41.59°N, 74.38°W
Report Text: KMGJ 211854Z AUTO 04009KT 10SM FEW009 BKN050 OVC095 12/09 A2987 RMK AO2 RAB19E24 SLP114 P0000 T01220094 TSNO
Loading
Personal Weather Stations






























Interactive Weather Map
Tropical Storm Tracking
New forecast layout! Learn more

10-Day Weather Forecast

Advertisements
Track Severe Weather on mobile